sensor_id;sensor_type;location;lat;lon;timestamp;pressure;altitude;pressure_sealevel;temperature;humidity
40596;BME280;26304;48.794;9.820;2024-03-08T00:00:19;96226.59;;;15.33;56.23
40596;BME280;26304;48.794;9.820;2024-03-08T00:02:42;96228.81;;;15.31;56.11
40596;BME280;26304;48.794;9.820;2024-03-08T00:05:07;96223.56;;;15.31;56.46
40596;BME280;26304;48.794;9.820;2024-03-08T00:07:30;96226.59;;;15.33;56.05
40596;BME280;26304;48.794;9.820;2024-03-08T00:09:53;96226.59;;;15.33;56.54
40596;BME280;26304;48.794;9.820;2024-03-08T00:12:16;96226.19;;;15.31;55.79
40596;BME280;26304;48.794;9.820;2024-03-08T00:14:38;96224.66;;;15.30;56.04
40596;BME280;26304;48.794;9.820;2024-03-08T00:17:01;96223.56;;;15.31;56.55
40596;BME280;26304;48.794;9.820;2024-03-08T00:19:24;96233.66;;;15.29;56.56
40596;BME280;26304;48.794;9.820;2024-03-08T00:21:48;96225.78;;;15.29;56.12
40596;BME280;26304;48.794;9.820;2024-03-08T00:24:10;96231.03;;;15.29;56.80
40596;BME280;26304;48.794;9.820;2024-03-08T00:26:33;96224.28;;;15.28;56.61
40596;BME280;26304;48.794;9.820;2024-03-08T00:28:55;96220.91;;;15.27;56.25
40596;BME280;26304;48.794;9.820;2024-03-08T00:31:18;96216.03;;;15.25;56.31
40596;BME280;26304;48.794;9.820;2024-03-08T00:33:40;96208.88;;;15.22;56.06
40596;BME280;26304;48.794;9.820;2024-03-08T00:36:02;96203.63;;;15.22;56.70
40596;BME280;26304;48.794;9.820;2024-03-08T00:38:26;96205.91;;;15.24;56.15
40596;BME280;26304;48.794;9.820;2024-03-08T00:40:49;96207.34;;;15.21;56.14
40596;BME280;26304;48.794;9.820;2024-03-08T00:43:11;96202.84;;;15.22;56.37
40596;BME280;26304;48.794;9.820;2024-03-08T00:45:34;96194.25;;;15.21;56.56
40596;BME280;26304;48.794;9.820;2024-03-08T00:47:58;96197.16;;;15.16;56.24
40596;BME280;26304;48.794;9.820;2024-03-08T00:50:20;96191.19;;;15.16;56.77
40596;BME280;26304;48.794;9.820;2024-03-08T00:52:43;96186.31;;;15.14;56.65
40596;BME280;26304;48.794;9.820;2024-03-08T00:55:08;96185.94;;;15.16;56.20
40596;BME280;26304;48.794;9.820;2024-03-08T00:57:31;96182.91;;;15.14;56.53
40596;BME280;26304;48.794;9.820;2024-03-08T00:59:54;96178.03;;;15.12;55.75
40596;BME280;26304;48.794;9.820;2024-03-08T01:02:15;96181.34;;;15.09;55.85
40596;BME280;26304;48.794;9.820;2024-03-08T01:04:40;96170.53;;;15.11;56.70
40596;BME280;26304;48.794;9.820;2024-03-08T01:07:02;96177.22;;;15.08;55.84
40596;BME280;26304;48.794;9.820;2024-03-08T01:09:25;96171.28;;;15.11;56.11
40596;BME280;26304;48.794;9.820;2024-03-08T01:11:49;96168.94;;;15.06;56.15
40596;BME280;26304;48.794;9.820;2024-03-08T01:14:11;96170.13;;;15.08;56.29
40596;BME280;26304;48.794;9.820;2024-03-08T01:16:34;96159.66;;;15.08;56.31
40596;BME280;26304;48.794;9.820;2024-03-08T01:18:56;96163.00;;;15.09;56.81
40596;BME280;26304;48.794;9.820;2024-03-08T01:21:19;96153.66;;;15.08;56.06
40596;BME280;26304;48.794;9.820;2024-03-08T01:23:41;96155.16;;;15.09;56.58
40596;BME280;26304;48.794;9.820;2024-03-08T01:26:04;96143.13;;;15.04;56.17
40596;BME280;26304;48.794;9.820;2024-03-08T01:28:27;96147.63;;;15.04;56.87
40596;BME280;26304;48.794;9.820;2024-03-08T01:30:50;96148.34;;;15.04;56.53
40596;BME280;26304;48.794;9.820;2024-03-08T01:33:16;96140.84;;;15.03;56.44
40596;BME280;26304;48.794;9.820;2024-03-08T01:35:39;96137.88;;;15.04;56.37
40596;BME280;26304;48.794;9.820;2024-03-08T01:38:02;96132.66;;;15.04;56.26
40596;BME280;26304;48.794;9.820;2024-03-08T01:40:26;96135.22;;;15.01;55.77
40596;BME280;26304;48.794;9.820;2024-03-08T01:42:48;96131.50;;;15.02;56.29
40596;BME280;26304;48.794;9.820;2024-03-08T01:45:12;96133.72;;;15.00;56.39
40596;BME280;26304;48.794;9.820;2024-03-08T01:47:34;96122.84;;;14.98;56.69
40596;BME280;26304;48.794;9.820;2024-03-08T01:49:57;96117.59;;;14.98;56.03
40596;BME280;26304;48.794;9.820;2024-03-08T01:52:21;96120.56;;;14.96;55.89
40596;BME280;26304;48.794;9.820;2024-03-08T01:54:45;96125.81;;;14.96;55.95
40596;BME280;26304;48.794;9.820;2024-03-08T01:57:07;96118.72;;;14.97;56.52
40596;BME280;26304;48.794;9.820;2024-03-08T01:59:30;96113.84;;;14.95;56.06
40596;BME280;26304;48.794;9.820;2024-03-08T02:01:55;96107.09;;;14.94;56.28
40596;BME280;26304;48.794;9.820;2024-03-08T02:04:17;96110.09;;;14.96;56.64
40596;BME280;26304;48.794;9.820;2024-03-08T02:06:40;96104.88;;;14.96;56.41
40596;BME280;26304;48.794;9.820;2024-03-08T02:09:02;96098.88;;;14.96;56.40
40596;BME280;26304;48.794;9.820;2024-03-08T02:11:27;96099.97;;;14.95;56.21
40596;BME280;26304;48.794;9.820;2024-03-08T02:13:49;96092.13;;;14.95;56.42
40596;BME280;26304;48.794;9.820;2024-03-08T02:16:11;96092.09;;;14.91;56.17
40596;BME280;26304;48.794;9.820;2024-03-08T02:18:36;96087.59;;;14.92;56.04
40596;BME280;26304;48.794;9.820;2024-03-08T02:21:03;96088.38;;;14.92;55.93
40596;BME280;26304;48.794;9.820;2024-03-08T02:23:26;96090.22;;;14.92;55.99
40596;BME280;26304;48.794;9.820;2024-03-08T02:25:49;96089.88;;;14.93;56.32
40596;BME280;26304;48.794;9.820;2024-03-08T02:28:12;96085.41;;;14.94;56.38
40596;BME280;26304;48.794;9.820;2024-03-08T02:30:35;96079.41;;;14.93;56.70
40596;BME280;26304;48.794;9.820;2024-03-08T02:32:57;96075.28;;;14.92;56.51
40596;BME280;26304;48.794;9.820;2024-03-08T02:35:20;96084.28;;;14.95;56.13
40596;BME280;26304;48.794;9.820;2024-03-08T02:37:43;96086.09;;;14.91;56.38
40596;BME280;26304;48.794;9.820;2024-03-08T02:40:09;96077.84;;;14.88;56.99
40596;BME280;26304;48.794;9.820;2024-03-08T02:42:33;96071.84;;;14.88;56.20
40596;BME280;26304;48.794;9.820;2024-03-08T02:44:56;96072.56;;;14.85;56.58
40596;BME280;26304;48.794;9.820;2024-03-08T02:47:19;96064.34;;;14.86;56.77
40596;BME280;26304;48.794;9.820;2024-03-08T02:49:41;96070.41;;;14.91;56.64
40596;BME280;26304;48.794;9.820;2024-03-08T02:52:04;96065.09;;;14.87;56.27
40596;BME280;26304;48.794;9.820;2024-03-08T02:54:29;96056.06;;;14.81;55.92
40596;BME280;26304;48.794;9.820;2024-03-08T02:56:52;96056.47;;;14.83;56.85
40596;BME280;26304;48.794;9.820;2024-03-08T02:59:14;96052.75;;;14.84;56.52
40596;BME280;26304;48.794;9.820;2024-03-08T03:01:38;96045.25;;;14.82;56.78
40596;BME280;26304;48.794;9.820;2024-03-08T03:04:02;96049.31;;;14.80;56.77
40596;BME280;26304;48.794;9.820;2024-03-08T03:06:24;96050.06;;;14.80;56.05
40596;BME280;26304;48.794;9.820;2024-03-08T03:08:47;96046.34;;;14.81;55.85
40596;BME280;26304;48.794;9.820;2024-03-08T03:11:11;96045.53;;;14.77;56.68
40596;BME280;26304;48.794;9.820;2024-03-08T03:13:34;96047.44;;;14.80;56.66
40596;BME280;26304;48.794;9.820;2024-03-08T03:15:56;96044.78;;;14.77;56.29
40596;BME280;26304;48.794;9.820;2024-03-08T03:18:19;96047.03;;;14.78;55.94
40596;BME280;26304;48.794;9.820;2024-03-08T03:20:44;96047.41;;;14.77;56.14
40596;BME280;26304;48.794;9.820;2024-03-08T03:23:07;96049.28;;;14.76;56.45
40596;BME280;26304;48.794;9.820;2024-03-08T03:25:30;96042.56;;;14.79;56.47
40596;BME280;26304;48.794;9.820;2024-03-08T03:27:57;96052.28;;;14.78;56.04
40596;BME280;26304;48.794;9.820;2024-03-08T03:30:19;96041.41;;;14.76;56.61
40596;BME280;26304;48.794;9.820;2024-03-08T03:32:43;96043.56;;;14.70;55.94
40596;BME280;26304;48.794;9.820;2024-03-08T03:35:08;96043.22;;;14.72;56.41
40596;BME280;26304;48.794;9.820;2024-03-08T03:37:30;96034.28;;;14.73;56.60
40596;BME280;26304;48.794;9.820;2024-03-08T03:39:52;96034.66;;;14.75;56.40
40596;BME280;26304;48.794;9.820;2024-03-08T03:42:15;96028.69;;;14.75;56.33
40596;BME280;26304;48.794;9.820;2024-03-08T03:44:39;96024.56;;;14.74;55.97
40596;BME280;26304;48.794;9.820;2024-03-08T03:47:02;96030.50;;;14.70;56.18
40596;BME280;26304;48.794;9.820;2024-03-08T03:49:24;96021.91;;;14.70;56.17
40596;BME280;26304;48.794;9.820;2024-03-08T03:51:47;96022.63;;;14.70;56.22
40596;BME280;26304;48.794;9.820;2024-03-08T03:54:09;96015.91;;;14.69;55.99
40596;BME280;26304;48.794;9.820;2024-03-08T03:56:31;96026.03;;;14.71;56.54
40596;BME280;26304;48.794;9.820;2024-03-08T03:58:54;96010.34;;;14.71;56.36
40596;BME280;26304;48.794;9.820;2024-03-08T04:01:17;96005.09;;;14.71;56.37
40596;BME280;26304;48.794;9.820;2024-03-08T04:03:41;96012.94;;;14.71;56.42
40596;BME280;26304;48.794;9.820;2024-03-08T04:06:04;96002.84;;;14.69;56.18
40596;BME280;26304;48.794;9.820;2024-03-08T04:08:26;96007.72;;;14.71;56.44
40596;BME280;26304;48.794;9.820;2024-03-08T04:10:49;95999.06;;;14.67;56.43
40596;BME280;26304;48.794;9.820;2024-03-08T04:13:12;95999.44;;;14.69;56.24
40596;BME280;26304;48.794;9.820;2024-03-08T04:15:36;95994.91;;;14.66;56.60
40596;BME280;26304;48.794;9.820;2024-03-08T04:18:00;95996.75;;;14.62;56.46
40596;BME280;26304;48.794;9.820;2024-03-08T04:20:23;96000.50;;;14.64;56.32
40596;BME280;26304;48.794;9.820;2024-03-08T04:22:45;95994.53;;;14.64;56.34
40596;BME280;26304;48.794;9.820;2024-03-08T04:25:10;95986.19;;;14.58;56.19
40596;BME280;26304;48.794;9.820;2024-03-08T04:27:32;95988.47;;;14.60;55.74
40596;BME280;26304;48.794;9.820;2024-03-08T04:29:55;95992.59;;;14.61;55.70
40596;BME280;26304;48.794;9.820;2024-03-08T04:32:18;95984.75;;;14.61;56.75
40596;BME280;26304;48.794;9.820;2024-03-08T04:34:41;95989.25;;;14.60;55.90
40596;BME280;26304;48.794;9.820;2024-03-08T04:37:05;95986.19;;;14.58;56.26
40596;BME280;26304;48.794;9.820;2024-03-08T04:39:28;95988.91;;;14.62;56.18
40596;BME280;26304;48.794;9.820;2024-03-08T04:41:50;95987.38;;;14.61;55.73
40596;BME280;26304;48.794;9.820;2024-03-08T04:44:13;95982.44;;;14.56;55.87
40596;BME280;26304;48.794;9.820;2024-03-08T04:46:35;95981.72;;;14.59;56.49
40596;BME280;26304;48.794;9.820;2024-03-08T04:48:58;95974.97;;;14.58;56.19
40596;BME280;26304;48.794;9.820;2024-03-08T04:51:22;95975.69;;;14.54;56.20
40596;BME280;26304;48.794;9.820;2024-03-08T04:53:44;95973.41;;;14.53;55.94
40596;BME280;26304;48.794;9.820;2024-03-08T04:56:07;95971.16;;;14.51;56.82
40596;BME280;26304;48.794;9.820;2024-03-08T04:58:29;95978.59;;;14.49;56.52
40596;BME280;26304;48.794;9.820;2024-03-08T05:00:52;95974.81;;;14.47;56.85
40596;BME280;26304;48.794;9.820;2024-03-08T05:03:14;95974.94;;;15.11;55.53
40596;BME280;26304;48.794;9.820;2024-03-08T05:05:36;95979.72;;;15.73;53.39
40596;BME280;26304;48.794;9.820;2024-03-08T05:08:00;95978.31;;;16.31;52.56
40596;BME280;26304;48.794;9.820;2024-03-08T05:10:23;95971.81;;;16.74;51.45
40596;BME280;26304;48.794;9.820;2024-03-08T05:12:46;95972.03;;;17.02;51.13
40596;BME280;26304;48.794;9.820;2024-03-08T05:15:08;95966.91;;;17.49;50.03
40596;BME280;26304;48.794;9.820;2024-03-08T05:17:31;95966.94;;;17.74;49.66
40596;BME280;26304;48.794;9.820;2024-03-08T05:19:53;95963.25;;;17.97;49.17
40596;BME280;26304;48.794;9.820;2024-03-08T05:22:15;95968.88;;;18.06;48.86
40596;BME280;26304;48.794;9.820;2024-03-08T05:24:39;95961.72;;;18.32;48.55
40596;BME280;26304;48.794;9.820;2024-03-08T05:27:02;95964.69;;;18.52;48.61
40596;BME280;26304;48.794;9.820;2024-03-08T05:29:24;95958.66;;;17.65;50.00
40596;BME280;26304;48.794;9.820;2024-03-08T05:31:48;95952.63;;;17.43;51.06
40596;BME280;26304;48.794;9.820;2024-03-08T05:34:10;95952.22;;;17.34;51.64
40596;BME280;26304;48.794;9.820;2024-03-08T05:36:35;95944.31;;;17.23;51.93
40596;BME280;26304;48.794;9.820;2024-03-08T05:38:57;95946.53;;;17.14;52.63
40596;BME280;26304;48.794;9.820;2024-03-08T05:41:21;95949.84;;;16.96;52.66
40596;BME280;26304;48.794;9.820;2024-03-08T05:43:44;95945.72;;;16.95;52.74
40596;BME280;26304;48.794;9.820;2024-03-08T05:46:06;95949.81;;;16.89;53.19
40596;BME280;26304;48.794;9.820;2024-03-08T05:48:29;95955.72;;;16.75;53.50
40596;BME280;26304;48.794;9.820;2024-03-08T05:50:53;95949.28;;;16.65;53.31
40596;BME280;26304;48.794;9.820;2024-03-08T05:53:15;95956.00;;;16.59;53.79
40596;BME280;26304;48.794;9.820;2024-03-08T05:55:38;95949.22;;;16.51;53.65
40596;BME280;26304;48.794;9.820;2024-03-08T05:58:02;95945.41;;;16.41;53.23
40596;BME280;26304;48.794;9.820;2024-03-08T06:00:24;95943.13;;;16.36;53.49
40596;BME280;26304;48.794;9.820;2024-03-08T06:02:47;95948.75;;;16.34;53.73
40596;BME280;26304;48.794;9.820;2024-03-08T06:05:10;95940.81;;;16.24;53.03
40596;BME280;26304;48.794;9.820;2024-03-08T06:07:32;95939.69;;;16.21;53.37
40596;BME280;26304;48.794;9.820;2024-03-08T06:09:55;95946.03;;;16.20;53.75
40596;BME280;26304;48.794;9.820;2024-03-08T06:12:17;95937.09;;;16.28;53.51
40596;BME280;26304;48.794;9.820;2024-03-08T06:14:41;95936.72;;;16.26;53.55
40596;BME280;26304;48.794;9.820;2024-03-08T06:17:04;95942.69;;;16.23;53.36
40596;BME280;26304;48.794;9.820;2024-03-08T06:19:28;95942.31;;;16.21;53.64
40596;BME280;26304;48.794;9.820;2024-03-08T06:21:50;95940.69;;;16.06;54.80
40596;BME280;26304;48.794;9.820;2024-03-08T06:24:13;95940.69;;;16.09;54.61
40596;BME280;26304;48.794;9.820;2024-03-08T06:26:36;95940.69;;;16.06;54.01
40596;BME280;26304;48.794;9.820;2024-03-08T06:28:58;95943.22;;;15.95;54.16
40596;BME280;26304;48.794;9.820;2024-03-08T06:31:23;95940.97;;;15.93;54.11
40596;BME280;26304;48.794;9.820;2024-03-08T06:33:45;95943.56;;;15.90;54.65
40596;BME280;26304;48.794;9.820;2024-03-08T06:36:10;95943.53;;;15.86;54.09
40596;BME280;26304;48.794;9.820;2024-03-08T06:38:33;95943.06;;;15.77;54.61
40596;BME280;26304;48.794;9.820;2024-03-08T06:40:55;95947.22;;;15.78;53.93
40596;BME280;26304;48.794;9.820;2024-03-08T06:43:18;95937.78;;;15.73;54.24
40596;BME280;26304;48.794;9.820;2024-03-08T06:45:40;95940.34;;;15.70;54.02
40596;BME280;26304;48.794;9.820;2024-03-08T06:48:05;95935.09;;;15.66;54.08
40596;BME280;26304;48.794;9.820;2024-03-08T06:50:30;95936.59;;;15.64;54.03
40596;BME280;26304;48.794;9.820;2024-03-08T06:52:53;95934.25;;;15.58;54.64
40596;BME280;26304;48.794;9.820;2024-03-08T06:55:15;95940.28;;;15.59;54.33
40596;BME280;26304;48.794;9.820;2024-03-08T06:57:38;95942.06;;;15.51;54.14
40596;BME280;26304;48.794;9.820;2024-03-08T07:00:01;95947.63;;;15.46;54.26
40596;BME280;26304;48.794;9.820;2024-03-08T07:02:23;95935.63;;;15.41;54.70
40596;BME280;26304;48.794;9.820;2024-03-08T07:04:47;95934.09;;;15.40;54.55
40596;BME280;26304;48.794;9.820;2024-03-08T07:07:11;95935.16;;;15.32;54.55
40596;BME280;26304;48.794;9.820;2024-03-08T07:09:34;95934.00;;;15.30;54.24
40596;BME280;26304;48.794;9.820;2024-03-08T07:11:56;95940.72;;;15.27;54.28
40596;BME280;26304;48.794;9.820;2024-03-08T07:14:18;95939.94;;;15.26;54.52
40596;BME280;26304;48.794;9.820;2024-03-08T07:16:42;95939.19;;;15.26;54.16
40596;BME280;26304;48.794;9.820;2024-03-08T07:19:05;95941.38;;;15.20;54.63
40596;BME280;26304;48.794;9.820;2024-03-08T07:21:29;95939.44;;;15.14;54.54
40596;BME280;26304;48.794;9.820;2024-03-08T07:23:51;95939.84;;;15.16;54.65
40596;BME280;26304;48.794;9.820;2024-03-08T07:26:34;95935.75;;;15.18;54.66
40596;BME280;26304;48.794;9.820;2024-03-08T07:28:57;95939.06;;;15.15;54.38
40596;BME280;26304;48.794;9.820;2024-03-08T07:31:21;95932.34;;;15.14;54.48
40596;BME280;26304;48.794;9.820;2024-03-08T07:33:52;95936.78;;;15.10;54.27
40596;BME280;26304;48.794;9.820;2024-03-08T07:36:15;95937.94;;;15.13;54.26
40596;BME280;26304;48.794;9.820;2024-03-08T07:38:39;95932.69;;;15.13;54.31
40596;BME280;26304;48.794;9.820;2024-03-08T07:41:01;95931.50;;;15.06;54.22
40596;BME280;26304;48.794;9.820;2024-03-08T07:43:24;95930.03;;;15.09;54.30
40596;BME280;26304;48.794;9.820;2024-03-08T07:45:46;95925.56;;;15.10;54.14
40596;BME280;26304;48.794;9.820;2024-03-08T07:48:09;95927.75;;;15.07;54.37
40596;BME280;26304;48.794;9.820;2024-03-08T07:50:31;95921.06;;;15.10;54.17
40596;BME280;26304;48.794;9.820;2024-03-08T07:52:54;95917.25;;;15.04;54.78
40596;BME280;26304;48.794;9.820;2024-03-08T07:55:18;95925.50;;;15.06;54.00
40596;BME280;26304;48.794;9.820;2024-03-08T07:57:40;95918.34;;;15.03;54.33
40596;BME280;26304;48.794;9.820;2024-03-08T08:00:04;95918.69;;;14.98;54.49
40596;BME280;26304;48.794;9.820;2024-03-08T08:02:29;95915.81;;;15.06;54.20
40596;BME280;26304;48.794;9.820;2024-03-08T08:04:52;95914.63;;;15.00;53.69
40596;BME280;26304;48.794;9.820;2024-03-08T08:07:15;95913.91;;;15.03;54.13
40596;BME280;26304;48.794;9.820;2024-03-08T08:09:38;95905.22;;;14.96;54.19
40596;BME280;26304;48.794;9.820;2024-03-08T08:12:01;95906.72;;;14.97;54.58
40596;BME280;26304;48.794;9.820;2024-03-08T08:14:24;95905.66;;;15.01;54.13
40596;BME280;26304;48.794;9.820;2024-03-08T08:16:47;95907.53;;;15.04;54.43
40596;BME280;26304;48.794;9.820;2024-03-08T08:19:11;95909.78;;;15.06;54.55
40596;BME280;26304;48.794;9.820;2024-03-08T08:21:34;95905.22;;;14.96;54.60
40596;BME280;26304;48.794;9.820;2024-03-08T08:23:57;95897.75;;;14.98;54.35
40596;BME280;26304;48.794;9.820;2024-03-08T08:26:20;95909.00;;;14.98;54.44
40596;BME280;26304;48.794;9.820;2024-03-08T08:28:44;95901.44;;;14.93;54.13
40596;BME280;26304;48.794;9.820;2024-03-08T08:31:07;95906.75;;;15.00;54.54
40596;BME280;26304;48.794;9.820;2024-03-08T08:33:29;95895.94;;;15.02;54.15
40596;BME280;26304;48.794;9.820;2024-03-08T08:35:52;95902.59;;;14.96;54.49
40596;BME280;26304;48.794;9.820;2024-03-08T08:38:15;95894.66;;;14.88;54.44
40596;BME280;26304;48.794;9.820;2024-03-08T08:40:37;95895.41;;;14.89;54.51
40596;BME280;26304;48.794;9.820;2024-03-08T08:43:00;95892.00;;;14.85;54.77
40596;BME280;26304;48.794;9.820;2024-03-08T08:45:23;95893.88;;;14.84;54.32
40596;BME280;26304;48.794;9.820;2024-03-08T08:47:47;95890.16;;;14.85;54.71
40596;BME280;26304;48.794;9.820;2024-03-08T08:50:11;95902.47;;;14.85;54.89
40596;BME280;26304;48.794;9.820;2024-03-08T08:52:33;95887.78;;;14.77;54.31
40596;BME280;26304;48.794;9.820;2024-03-08T08:54:56;95888.97;;;14.79;54.62
40596;BME280;26304;48.794;9.820;2024-03-08T08:57:18;95885.63;;;14.82;54.76
40596;BME280;26304;48.794;9.820;2024-03-08T08:59:41;95880.69;;;14.77;54.95
40596;BME280;26304;48.794;9.820;2024-03-08T09:02:05;95880.78;;;14.84;54.89
40596;BME280;26304;48.794;9.820;2024-03-08T09:04:29;95887.00;;;14.73;55.02
40596;BME280;26304;48.794;9.820;2024-03-08T09:06:52;95882.13;;;14.71;54.37
40596;BME280;26304;48.794;9.820;2024-03-08T09:09:15;95878.06;;;14.77;54.79
40596;BME280;26304;48.794;9.820;2024-03-08T09:11:38;95870.63;;;14.79;55.09
40596;BME280;26304;48.794;9.820;2024-03-08T09:14:02;95869.44;;;14.73;54.49
40596;BME280;26304;48.794;9.820;2024-03-08T09:16:26;95875.47;;;14.77;54.49
40596;BME280;26304;48.794;9.820;2024-03-08T09:18:50;95870.16;;;14.70;54.67
40596;BME280;26304;48.794;9.820;2024-03-08T09:21:12;95870.63;;;14.79;54.54
40596;BME280;26304;48.794;9.820;2024-03-08T09:23:34;95870.63;;;14.79;54.63
40596;BME280;26304;48.794;9.820;2024-03-08T09:25:57;95870.50;;;14.68;54.96
40596;BME280;26304;48.794;9.820;2024-03-08T09:28:19;95858.66;;;14.78;54.42
40596;BME280;26304;48.794;9.820;2024-03-08T09:30:41;95867.59;;;14.77;54.42
40596;BME280;26304;48.794;9.820;2024-03-08T09:33:05;95857.94;;;14.81;54.66
40596;BME280;26304;48.794;9.820;2024-03-08T09:35:30;95853.81;;;14.80;55.11
40596;BME280;26304;48.794;9.820;2024-03-08T09:37:52;95851.81;;;14.66;55.07
40596;BME280;26304;48.794;9.820;2024-03-08T09:40:15;95848.13;;;14.71;55.21
40596;BME280;26304;48.794;9.820;2024-03-08T09:42:40;95848.13;;;14.71;54.97
40596;BME280;26304;48.794;9.820;2024-03-08T09:45:04;95847.44;;;14.78;54.69
40596;BME280;26304;48.794;9.820;2024-03-08T09:47:32;95840.69;;;14.77;54.83
40596;BME280;26304;48.794;9.820;2024-03-08T09:49:55;95844.47;;;14.79;54.21
40596;BME280;26304;48.794;9.820;2024-03-08T09:52:19;95838.56;;;14.86;54.21
40596;BME280;26304;48.794;9.820;2024-03-08T09:54:41;95840.53;;;14.96;54.09
40596;BME280;26304;48.794;9.820;2024-03-08T09:57:06;95839.03;;;14.95;54.07
40596;BME280;26304;48.794;9.820;2024-03-08T09:59:30;95837.97;;;15.00;54.40
40596;BME280;26304;48.794;9.820;2024-03-08T10:02:05;95836.44;;;14.99;53.92
40596;BME280;26304;48.794;9.820;2024-03-08T10:04:28;95839.44;;;15.01;54.05
40596;BME280;26304;48.794;9.820;2024-03-08T10:06:51;95838.03;;;15.07;53.86
40596;BME280;26304;48.794;9.820;2024-03-08T10:09:15;95831.97;;;15.03;54.14
40596;BME280;26304;48.794;9.820;2024-03-08T10:11:38;95827.91;;;15.05;53.78
40596;BME280;26304;48.794;9.820;2024-03-08T10:14:01;95833.50;;;15.04;54.37
40596;BME280;26304;48.794;9.820;2024-03-08T10:16:25;95829.78;;;15.05;53.89
40596;BME280;26304;48.794;9.820;2024-03-08T10:18:48;95829.38;;;15.03;54.31
40596;BME280;26304;48.794;9.820;2024-03-08T10:21:11;95826.72;;;14.99;53.75
40596;BME280;26304;48.794;9.820;2024-03-08T10:23:36;95828.94;;;14.94;54.11
40596;BME280;26304;48.794;9.820;2024-03-08T10:26:11;95826.66;;;14.92;54.43
40596;BME280;26304;48.794;9.820;2024-03-08T10:28:35;95820.66;;;14.92;54.48
40596;BME280;26304;48.794;9.820;2024-03-08T10:30:58;95825.91;;;14.92;54.08
40596;BME280;26304;48.794;9.820;2024-03-08T10:33:20;95821.47;;;14.96;54.59
40596;BME280;26304;48.794;9.820;2024-03-08T10:35:42;95824.53;;;15.01;54.31
40596;BME280;26304;48.794;9.820;2024-03-08T10:38:09;95818.19;;;15.06;53.75
40596;BME280;26304;48.794;9.820;2024-03-08T10:40:39;95822.66;;;15.05;53.94
40596;BME280;26304;48.794;9.820;2024-03-08T10:43:04;95818.19;;;15.06;54.01
40596;BME280;26304;48.794;9.820;2024-03-08T10:45:35;95808.13;;;15.08;53.70
40596;BME280;26304;48.794;9.820;2024-03-08T10:48:08;95814.84;;;15.09;53.72
40596;BME280;26304;48.794;9.820;2024-03-08T10:50:32;95812.63;;;15.11;54.02
40596;BME280;26304;48.794;9.820;2024-03-08T10:52:57;95804.44;;;15.13;53.67
40596;BME280;26304;48.794;9.820;2024-03-08T10:55:24;95804.69;;;15.00;54.60
40596;BME280;26304;48.794;9.820;2024-03-08T10:57:47;95800.56;;;15.03;54.26
40596;BME280;26304;48.794;9.820;2024-03-08T11:00:12;95798.03;;;15.10;54.38
40596;BME280;26304;48.794;9.820;2024-03-08T11:02:35;95799.22;;;15.16;54.59
40596;BME280;26304;48.794;9.820;2024-03-08T11:04:59;95792.19;;;15.28;54.91
40596;BME280;26304;48.794;9.820;2024-03-08T11:07:22;95784.72;;;15.30;54.29
40596;BME280;26304;48.794;9.820;2024-03-08T11:09:47;95796.72;;;15.31;54.55
40596;BME280;26304;48.794;9.820;2024-03-08T11:12:23;95778.28;;;15.16;54.53
40596;BME280;26304;48.794;9.820;2024-03-08T11:14:52;95781.66;;;15.20;53.91
40596;BME280;26304;48.794;9.820;2024-03-08T11:17:20;95777.94;;;15.21;54.34
40596;BME280;26304;48.794;9.820;2024-03-08T11:19:47;95780.16;;;15.19;54.78
40596;BME280;26304;48.794;9.820;2024-03-08T11:22:20;95773.84;;;15.24;54.86
40596;BME280;26304;48.794;9.820;2024-03-08T11:24:44;95760.78;;;15.28;54.36
40596;BME280;26304;48.794;9.820;2024-03-08T11:27:07;95767.53;;;15.29;54.26
40596;BME280;26304;48.794;9.820;2024-03-08T11:29:37;95761.19;;;15.33;54.31
40596;BME280;26304;48.794;9.820;2024-03-08T11:32:04;95769.47;;;15.39;54.56
40596;BME280;26304;48.794;9.820;2024-03-08T11:34:29;95766.47;;;15.37;53.81
40596;BME280;26304;48.794;9.820;2024-03-08T11:36:53;95760.78;;;15.31;54.14
40596;BME280;26304;48.794;9.820;2024-03-08T11:39:17;95759.34;;;15.34;54.26
40596;BME280;26304;48.794;9.820;2024-03-08T11:41:40;95763.44;;;15.35;53.92
40596;BME280;26304;48.794;9.820;2024-03-08T11:44:04;95753.72;;;15.35;53.82
40596;BME280;26304;48.794;9.820;2024-03-08T11:46:27;95754.47;;;15.36;53.49
40596;BME280;26304;48.794;9.820;2024-03-08T11:48:54;95741.38;;;15.36;53.28
40596;BME280;26304;48.794;9.820;2024-03-08T11:51:18;95735.41;;;15.39;53.30
40596;BME280;26304;48.794;9.820;2024-03-08T11:53:41;95729.81;;;15.37;53.52
40596;BME280;26304;48.794;9.820;2024-03-08T11:56:07;95733.53;;;15.39;53.71
40596;BME280;26304;48.794;9.820;2024-03-08T11:58:30;95735.06;;;15.40;53.67
40596;BME280;26304;48.794;9.820;2024-03-08T12:01:02;95729.06;;;15.40;53.57
40596;BME280;26304;48.794;9.820;2024-03-08T12:03:26;95718.59;;;15.40;53.14
40596;BME280;26304;48.794;9.820;2024-03-08T12:05:57;95715.97;;;15.40;52.96
40596;BME280;26304;48.794;9.820;2024-03-08T12:08:22;95712.63;;;15.43;53.54
40596;BME280;26304;48.794;9.820;2024-03-08T12:10:44;95711.50;;;15.44;53.25
40596;BME280;26304;48.794;9.820;2024-03-08T12:13:07;95705.88;;;15.42;53.48
40596;BME280;26304;48.794;9.820;2024-03-08T12:15:34;95708.13;;;15.40;53.19
40596;BME280;26304;48.794;9.820;2024-03-08T12:17:56;95696.56;;;15.44;52.90
40596;BME280;26304;48.794;9.820;2024-03-08T12:20:21;95690.94;;;15.46;52.74
40596;BME280;26304;48.794;9.820;2024-03-08T12:22:44;95681.97;;;15.47;52.82
40596;BME280;26304;48.794;9.820;2024-03-08T12:25:09;95692.44;;;15.47;52.81
40596;BME280;26304;48.794;9.820;2024-03-08T12:27:33;95686.84;;;15.49;53.10
40596;BME280;26304;48.794;9.820;2024-03-08T12:29:55;95680.84;;;15.48;52.94
40596;BME280;26304;48.794;9.820;2024-03-08T12:32:17;95673.00;;;15.48;52.85
40596;BME280;26304;48.794;9.820;2024-03-08T12:34:40;95674.88;;;15.51;52.62
40596;BME280;26304;48.794;9.820;2024-03-08T12:37:02;95680.13;;;15.51;53.08
40596;BME280;26304;48.794;9.820;2024-03-08T12:39:30;95668.50;;;15.52;53.19